If you wish to contribute or participate in the discussions about articles you are invited to join SKYbrary as a registered user

 Actions

Derby Airport

From SKYbrary Wiki

YDBY
Airport
ICAO: YDBY – IATA: DRB
Summary
Name Derby Airport
Region Asia and Pacific
Territory Australia AU.gif
Location Derby, Western Australia
Serving Derby
Elevation 7.315 m
24 ft7.315 m
Coordinates 17° 22' 18.76" S, 123° 39' 41.58" E
Runways
Designator Length Width Surface ROPS
5/23 1158 m3,799.213 ft
18 m59.055 ft
GVL /
11/29 1736 m5,695.538 ft
30 m98.425 ft
ASP /


METAR
Observation YDBY 102100Z AUTO 00000KT 9999 // NCD 18/15 Q1014
Station Derby Airport
Date/Time 10 June 2019 21:00:00
Wind direction
Wind speed 00 kts
Lowest cloud amount no clouds detected
Temperature 18°C
Dew point 15°C
Humidity 82%
QNH 1014 hPa
Weather condition n/a

Airport located in Derby, Western Australia.

Maps

Terrain

Loading map...

Airport Layout

Loading map...


Accidents & Serious Incidents at or in vicinity of YDBY

None on SKYbrary